Time,TemperatureF,DewpointF,PressureIn,WindDirection,WindDirectionDegrees,WindSpeedMPH,WindSpeedGustMPH,Humidity,HourlyPrecipIn,Conditions,Clouds,dailyrainin,SolarRadiationWatts/m^2,SoftwareType,DateUTC
2013-07-26 00:00:00,62.7,48.1,30.02,SSE,162,0.0,3.0,59,0.00,,,0.00,0001,Weather View 32 v70,2013-07-26 07:00:00,
2013-07-26 00:10:00,62.4,48.3,30.02,SSW,207,0.0,3.0,60,0.00,,,0.00,0001,Weather View 32 v70,2013-07-26 07:10:00,
2013-07-26 00:15:00,62.3,48.2,30.02,SE,139,0.0,3.0,60,0.00,,,0.00,0001,Weather View 32 v70,2013-07-26 07:15:00,
2013-07-26 00:20:00,62.3,48.2,30.02,South,184,0.0,3.0,60,0.00,,,0.00,0002,Weather View 32 v70,2013-07-26 07:20:00,
2013-07-26 00:25:00,62.1,48.0,30.02,SE,139,0.0,3.0,60,0.00,,,0.00,0001,Weather View 32 v70,2013-07-26 07:25:00,
2013-07-26 00:30:00,62.0,47.9,30.02,SSE,162,0.0,3.0,60,0.00,,,0.00,0001,Weather View 32 v70,2013-07-26 07:30:00,
2013-07-26 00:40:00,61.9,48.3,30.02,SE,139,0.0,1.0,61,0.00,,,0.00,0001,Weather View 32 v70,2013-07-26 07:40:00,
2013-07-26 00:45:00,61.8,49.0,30.02,ESE,117,0.0,1.0,63,0.00,,,0.00,0002,Weather View 32 v70,2013-07-26 07:45:00,
2013-07-26 00:50:00,61.7,49.4,30.02,South,184,0.0,1.0,64,0.00,,,0.00,0001,Weather View 32 v70,2013-07-26 07:50:00,
2013-07-26 00:55:00,61.6,48.8,30.02,SSE,162,0.0,0.0,63,0.00,,,0.00,0001,Weather View 32 v70,2013-07-26 07:55:00,
2013-07-26 01:00:00,61.5,49.6,30.02,SE,139,0.0,0.0,65,0.00,,,0.00,0002,Weather View 32 v70,2013-07-26 08:00:00,
2013-07-26 01:10:00,61.2,49.3,30.02,SSW,207,0.0,0.0,65,0.00,,,0.00,0002,Weather View 32 v70,2013-07-26 08:10:00,
2013-07-26 01:15:00,61.1,49.2,30.01,WSW,252,0.0,0.0,65,0.00,,,0.00,0001,Weather View 32 v70,2013-07-26 08:15:00,
2013-07-26 01:20:00,61.0,49.1,30.02,SSW,207,0.0,0.0,65,0.00,,,0.00,0001,Weather View 32 v70,2013-07-26 08:20:00,
2013-07-26 01:25:00,61.0,49.1,30.02,SSW,207,0.0,0.0,65,0.00,,,0.00,0002,Weather View 32 v70,2013-07-26 08:25:00,
2013-07-26 01:35:00,60.6,49.2,30.02,SSE,162,0.0,0.0,66,0.00,,,0.00,0001,Weather View 32 v70,2013-07-26 08:35:00,
2013-07-26 01:40:00,60.3,48.9,30.02,South,184,0.0,0.0,66,0.00,,,0.00,0001,Weather View 32 v70,2013-07-26 08:40:00,
2013-07-26 01:45:00,60.3,49.3,30.02,SSW,207,0.0,0.0,67,0.00,,,0.00,0001,Weather View 32 v70,2013-07-26 08:45:00,
2013-07-26 01:50:00,60.2,49.2,30.02,WSW,252,0.0,0.0,67,0.00,,,0.00,0001,Weather View 32 v70,2013-07-26 08:50:00,
2013-07-26 02:00:00,60.1,49.5,30.02,ESE,117,0.0,0.0,68,0.00,,,0.00,0001,Weather View 32 v70,2013-07-26 09:00:00,
2013-07-26 02:05:00,59.9,49.3,30.02,SSW,207,0.0,0.0,68,0.00,,,0.00,0001,Weather View 32 v70,2013-07-26 09:05:00,
2013-07-26 02:10:00,59.9,49.7,30.02,South,184,0.0,0.0,69,0.00,,,0.00,0001,Weather View 32 v70,2013-07-26 09:10:00,
2013-07-26 02:15:00,59.8,49.6,30.02,SSW,207,0.0,0.0,69,0.00,,,0.00,0002,Weather View 32 v70,2013-07-26 09:15:00,
2013-07-26 02:25:00,59.5,49.7,30.02,SSE,162,0.0,0.0,70,0.00,,,0.00,0001,Weather View 32 v70,2013-07-26 09:25:00,
2013-07-26 02:30:00,59.3,49.5,30.02,SSE,162,0.0,0.0,70,0.00,,,0.00,0002,Weather View 32 v70,2013-07-26 09:30:00,
2013-07-26 02:35:00,59.1,49.3,30.02,SSE,162,0.0,0.0,70,0.00,,,0.00,0001,Weather View 32 v70,2013-07-26 09:35:00,
2013-07-26 02:40:00,58.9,49.5,30.02,SSE,162,0.0,0.0,71,0.00,,,0.00,0002,Weather View 32 v70,2013-07-26 09:40:00,
2013-07-26 02:45:00,58.7,49.7,30.02,SSE,162,0.0,0.0,72,0.00,,,0.00,0002,Weather View 32 v70,2013-07-26 09:45:00,
2013-07-26 02:55:00,58.6,50.0,30.02,SSE,162,0.0,0.0,73,0.00,,,0.00,0002,Weather View 32 v70,2013-07-26 09:55:00,
2013-07-26 03:00:00,58.5,50.2,30.02,SSE,162,0.0,0.0,74,0.00,,,0.00,0002,Weather View 32 v70,2013-07-26 10:00:00,
2013-07-26 03:05:00,58.4,50.1,30.01,SSE,162,0.0,0.0,74,0.00,,,0.00,0002,Weather View 32 v70,2013-07-26 10:05:00,
2013-07-26 03:15:00,58.2,50.3,30.02,SSW,207,0.0,0.0,75,0.00,,,0.00,0002,Weather View 32 v70,2013-07-26 10:15:00,
2013-07-26 03:20:00,58.1,50.2,30.02,South,184,0.0,0.0,75,0.00,,,0.00,0001,Weather View 32 v70,2013-07-26 10:20:00,
2013-07-26 03:25:00,58.0,50.1,30.02,South,184,0.0,0.0,75,0.00,,,0.00,0002,Weather View 32 v70,2013-07-26 10:25:00,
2013-07-26 03:30:00,57.9,50.0,30.02,South,184,0.0,0.0,75,0.00,,,0.00,0002,Weather View 32 v70,2013-07-26 10:30:00,
2013-07-26 03:40:00,57.7,50.2,30.02,SSW,207,0.0,0.0,76,0.00,,,0.00,0001,Weather View 32 v70,2013-07-26 10:40:00,
2013-07-26 03:45:00,57.6,50.1,30.02,South,184,0.0,0.0,76,0.00,,,0.00,0002,Weather View 32 v70,2013-07-26 10:45:00,
2013-07-26 03:50:00,57.5,50.0,30.02,South,184,0.0,0.0,76,0.00,,,0.00,0002,Weather View 32 v70,2013-07-26 10:50:00,
2013-07-26 03:55:00,57.4,50.2,30.02,SSW,207,0.0,0.0,77,0.00,,,0.00,0002,Weather View 32 v70,2013-07-26 10:55:00,
2013-07-26 04:00:00,57.4,50.2,30.02,SSW,207,0.0,0.0,77,0.00,,,0.00,0002,Weather View 32 v70,2013-07-26 11:00:00,
2013-07-26 04:10:00,57.2,50.0,30.02,South,184,0.0,0.0,77,0.00,,,0.00,0002,Weather View 32 v70,2013-07-26 11:10:00,
2013-07-26 04:15:00,57.0,50.2,30.02,South,184,0.0,0.0,78,0.00,,,0.00,0002,Weather View 32 v70,2013-07-26 11:15:00,
2013-07-26 04:20:00,56.9,50.1,30.03,South,184,0.0,0.0,78,0.00,,,0.00,0002,Weather View 32 v70,2013-07-26 11:20:00,
2013-07-26 04:25:00,56.9,50.4,30.03,South,184,0.0,0.0,79,0.00,,,0.00,0002,Weather View 32 v70,2013-07-26 11:25:00,
2013-07-26 04:30:00,56.9,50.4,30.03,South,184,0.0,0.0,79,0.00,,,0.00,0001,Weather View 32 v70,2013-07-26 11:30:00,
2013-07-26 04:40:00,56.7,50.2,30.03,South,184,0.0,0.0,79,0.00,,,0.00,0001,Weather View 32 v70,2013-07-26 11:40:00,
2013-07-26 04:45:00,56.6,50.1,30.03,SSW,207,0.0,0.0,79,0.00,,,0.00,0002,Weather View 32 v70,2013-07-26 11:45:00,
2013-07-26 04:55:00,56.5,50.4,30.03,South,184,0.0,0.0,80,0.00,,,0.00,0002,Weather View 32 v70,2013-07-26 11:55:00,
2013-07-26 05:05:00,56.4,50.3,30.03,South,184,0.0,0.0,80,0.00,,,0.00,0002,Weather View 32 v70,2013-07-26 12:05:00,
2013-07-26 05:15:00,56.4,50.6,30.03,SSE,162,0.0,0.0,81,0.00,,,0.00,0002,Weather View 32 v70,2013-07-26 12:15:00,
2013-07-26 05:20:00,56.3,50.5,30.04,South,184,0.0,0.0,81,0.00,,,0.00,0002,Weather View 32 v70,2013-07-26 12:20:00,
2013-07-26 05:30:00,56.2,50.8,30.04,SSW,207,0.0,0.0,82,0.00,,,0.00,0001,Weather View 32 v70,2013-07-26 12:30:00,
2013-07-26 05:35:00,56.2,50.8,30.04,SW,229,0.0,0.0,82,0.00,,,0.00,0001,Weather View 32 v70,2013-07-26 12:35:00,
2013-07-26 05:40:00,56.2,50.8,30.04,SSE,162,0.0,0.0,82,0.00,,,0.00,0002,Weather View 32 v70,2013-07-26 12:40:00,
2013-07-26 05:45:00,56.2,50.8,30.04,SSE,162,0.0,0.0,82,0.00,,,0.00,0002,Weather View 32 v70,2013-07-26 12:45:00,
2013-07-26 05:50:00,56.0,50.6,30.04,South,184,0.0,0.0,82,0.00,,,0.00,0002,Weather View 32 v70,2013-07-26 12:50:00,
2013-07-26 06:00:00,55.9,50.5,30.05,SSW,207,0.0,0.0,82,0.00,,,0.00,0003,Weather View 32 v70,2013-07-26 13:00:00,
2013-07-26 06:05:00,55.8,50.7,30.05,SSW,207,0.0,0.0,83,0.00,,,0.00,0004,Weather View 32 v70,2013-07-26 13:05:00,
2013-07-26 06:10:00,55.7,50.6,30.05,SW,229,0.0,0.0,83,0.00,,,0.00,0005,Weather View 32 v70,2013-07-26 13:10:00,
2013-07-26 06:15:00,55.7,50.6,30.06,SSW,207,0.0,0.0,83,0.00,,,0.00,0007,Weather View 32 v70,2013-07-26 13:15:00,
2013-07-26 06:25:00,55.8,51.0,30.06,SSE,162,0.0,0.0,84,0.00,,,0.00,0011,Weather View 32 v70,2013-07-26 13:25:00,
2013-07-26 06:30:00,55.8,50.7,30.06,SSW,207,0.0,0.0,83,0.00,,,0.00,0030,Weather View 32 v70,2013-07-26 13:30:00,
2013-07-26 06:35:00,55.9,50.8,30.06,South,184,0.0,0.0,83,0.00,,,0.00,0071,Weather View 32 v70,2013-07-26 13:35:00,
2013-07-26 06:40:00,56.3,51.2,30.07,SE,139,0.0,0.0,83,0.00,,,0.00,0088,Weather View 32 v70,2013-07-26 13:40:00,
2013-07-26 06:50:00,57.2,51.7,30.07,SE,139,0.0,0.0,82,0.00,,,0.00,0116,Weather View 32 v70,2013-07-26 13:50:00,
2013-07-26 06:55:00,57.7,52.2,30.07,ESE,117,0.0,0.0,82,0.00,,,0.00,0128,Weather View 32 v70,2013-07-26 13:55:00,
2013-07-26 07:00:00,58.1,52.3,30.07,ESE,117,2.0,3.0,81,0.00,,,0.00,0141,Weather View 32 v70,2013-07-26 14:00:00,
2013-07-26 07:05:00,58.6,52.4,30.07,ESE,117,1.0,3.0,80,0.00,,,0.00,0152,Weather View 32 v70,2013-07-26 14:05:00,
2013-07-26 07:10:00,59.1,52.6,30.07,ESE,117,1.0,3.0,79,0.00,,,0.00,0167,Weather View 32 v70,2013-07-26 14:10:00,
2013-07-26 07:20:00,60.2,53.3,30.07,ESE,117,2.0,3.0,78,0.00,,,0.00,0191,Weather View 32 v70,2013-07-26 14:20:00,
2013-07-26 07:25:00,60.2,52.9,30.07,SE,139,1.0,3.0,77,0.00,,,0.00,0204,Weather View 32 v70,2013-07-26 14:25:00,
2013-07-26 07:30:00,60.2,52.9,30.08,ESE,117,3.0,3.0,77,0.00,,,0.00,0217,Weather View 32 v70,2013-07-26 14:30:00,
2013-07-26 07:35:00,60.3,53.0,30.08,East,94,2.0,3.0,77,0.00,,,0.00,0228,Weather View 32 v70,2013-07-26 14:35:00,
2013-07-26 07:45:00,60.6,53.3,30.08,SSE,162,1.0,3.0,77,0.00,,,0.00,0256,Weather View 32 v70,2013-07-26 14:45:00,
2013-07-26 07:50:00,60.9,53.6,30.08,ESE,117,3.0,4.0,77,0.00,,,0.00,0266,Weather View 32 v70,2013-07-26 14:50:00,
2013-07-26 07:55:00,61.5,53.8,30.08,ESE,117,1.0,4.0,76,0.00,,,0.00,0280,Weather View 32 v70,2013-07-26 14:55:00,
2013-07-26 08:00:00,61.5,53.8,30.08,SE,139,0.0,5.0,76,0.00,,,0.00,0296,Weather View 32 v70,2013-07-26 15:00:00,
2013-07-26 08:07:00,62.1,54.1,30.08,ESE,117,0.0,5.0,75,0.00,,,0.00,0306,Weather View 32 v70,2013-07-26 15:07:00,
2013-07-26 08:15:00,62.6,53.8,30.08,North,4,3.0,5.0,73,0.00,,,0.00,0332,Weather View 32 v70,2013-07-26 15:15:00,
2013-07-26 08:25:00,62.8,54.0,30.08,NNE,27,4.0,5.0,73,0.00,,,0.00,0356,Weather View 32 v70,2013-07-26 15:25:00,
2013-07-26 08:30:00,63.0,54.2,30.08,NNE,27,2.0,5.0,73,0.00,,,0.00,0368,Weather View 32 v70,2013-07-26 15:30:00,
2013-07-26 08:40:00,63.7,54.5,30.09,ENE,72,4.0,6.0,72,0.00,,,0.00,0393,Weather View 32 v70,2013-07-26 15:40:00,
2013-07-26 08:45:00,63.8,54.2,30.09,East,94,3.0,6.0,71,0.00,,,0.00,0405,Weather View 32 v70,2013-07-26 15:45:00,
2013-07-26 08:50:00,64.2,54.6,30.09,North,4,1.0,6.0,71,0.00,,,0.00,0418,Weather View 32 v70,2013-07-26 15:50:00,
2013-07-26 08:55:00,64.4,54.4,30.09,ESE,117,3.0,6.0,70,0.00,,,0.00,0429,Weather View 32 v70,2013-07-26 15:55:00,
2013-07-26 09:05:00,64.8,54.4,30.09,North,4,2.0,6.0,69,0.00,,,0.00,0455,Weather View 32 v70,2013-07-26 16:05:00,
2013-07-26 09:10:00,65.5,55.0,30.09,East,94,1.0,6.0,69,0.00,,,0.00,0468,Weather View 32 v70,2013-07-26 16:10:00,
2013-07-26 09:15:00,65.5,54.6,30.09,ENE,72,3.0,6.0,68,0.00,,,0.00,0482,Weather View 32 v70,2013-07-26 16:15:00,
2013-07-26 09:20:00,66.3,55.0,30.09,North,4,1.0,6.0,67,0.00,,,0.00,0493,Weather View 32 v70,2013-07-26 16:20:00,
2013-07-26 09:25:00,66.4,54.7,30.09,South,184,1.0,6.0,66,0.00,,,0.00,0506,Weather View 32 v70,2013-07-26 16:25:00,
2013-07-26 09:30:00,66.5,54.8,30.09,NNE,27,3.0,6.0,66,0.00,,,0.00,0519,Weather View 32 v70,2013-07-26 16:30:00,
2013-07-26 09:40:00,67.5,55.3,30.09,NNE,27,2.0,6.0,65,0.00,,,0.00,0543,Weather View 32 v70,2013-07-26 16:40:00,
2013-07-26 09:45:00,67.8,55.1,30.09,ESE,117,2.0,6.0,64,0.00,,,0.00,0555,Weather View 32 v70,2013-07-26 16:45:00,
2013-07-26 09:50:00,67.1,54.0,30.08,NNW,342,4.0,8.0,63,0.00,,,0.00,0569,Weather View 32 v70,2013-07-26 16:50:00,
2013-07-26 09:55:00,67.6,55.0,30.08,NE,49,5.0,8.0,64,0.00,,,0.00,0581,Weather View 32 v70,2013-07-26 16:55:00,
2013-07-26 10:05:00,68.1,55.0,30.08,NE,49,3.0,8.0,63,0.00,,,0.00,0606,Weather View 32 v70,2013-07-26 17:05:00,
2013-07-26 10:10:00,68.8,55.2,30.08,NNE,27,3.0,8.0,62,0.00,,,0.00,0615,Weather View 32 v70,2013-07-26 17:10:00,
2013-07-26 10:15:00,69.5,55.4,30.08,SE,139,1.0,8.0,61,0.00,,,0.00,0628,Weather View 32 v70,2013-07-26 17:15:00,
2013-07-26 10:20:00,70.6,56.0,30.08,West,274,1.0,8.0,60,0.00,,,0.00,0640,Weather View 32 v70,2013-07-26 17:20:00,
2013-07-26 10:25:00,70.7,55.2,30.08,East,94,3.0,8.0,58,0.00,,,0.00,0650,Weather View 32 v70,2013-07-26 17:25:00,
2013-07-26 10:35:00,70.7,55.2,30.08,WNW,297,1.0,8.0,58,0.00,,,0.00,0670,Weather View 32 v70,2013-07-26 17:35:00,
2013-07-26 10:40:00,71.0,55.4,30.08,NNE,27,4.0,8.0,58,0.00,,,0.00,0679,Weather View 32 v70,2013-07-26 17:40:00,
2013-07-26 10:45:00,71.2,55.1,30.08,NW,319,4.0,8.0,57,0.00,,,0.00,0688,Weather View 32 v70,2013-07-26 17:45:00,
2013-07-26 10:50:00,71.6,55.5,30.08,ENE,72,3.0,7.0,57,0.00,,,0.00,0698,Weather View 32 v70,2013-07-26 17:50:00,
2013-07-26 10:55:00,72.6,56.0,30.08,SSW,207,1.0,7.0,56,0.00,,,0.00,0705,Weather View 32 v70,2013-07-26 17:55:00,
2013-07-26 11:05:00,74.0,56.2,30.07,NNE,27,4.0,6.0,54,0.00,,,0.00,0720,Weather View 32 v70,2013-07-26 18:05:00,
2013-07-26 11:10:00,74.0,55.2,30.07,NNE,27,3.0,6.0,52,0.00,,,0.00,0728,Weather View 32 v70,2013-07-26 18:10:00,
2013-07-26 11:15:00,74.3,55.5,30.07,ESE,117,5.0,6.0,52,0.00,,,0.00,0736,Weather View 32 v70,2013-07-26 18:15:00,
2013-07-26 11:20:00,75.0,55.6,30.07,North,4,1.0,6.0,51,0.00,,,0.00,0740,Weather View 32 v70,2013-07-26 18:20:00,
2013-07-26 11:25:00,75.5,55.5,30.07,SE,139,4.0,7.0,50,0.00,,,0.00,0745,Weather View 32 v70,2013-07-26 18:25:00,
2013-07-26 11:35:00,76.8,56.1,30.06,ESE,117,1.0,7.0,49,0.00,,,0.00,0758,Weather View 32 v70,2013-07-26 18:35:00,
2013-07-26 11:40:00,77.6,56.3,30.06,ENE,72,3.0,7.0,48,0.00,,,0.00,0761,Weather View 32 v70,2013-07-26 18:40:00,
2013-07-26 11:45:00,78.0,56.1,30.06,SE,139,3.0,7.0,47,0.00,,,0.00,0766,Weather View 32 v70,2013-07-26 18:45:00,
2013-07-26 11:50:00,77.8,55.3,30.06,ESE,117,5.0,7.0,46,0.00,,,0.00,0769,Weather View 32 v70,2013-07-26 18:50:00,
2013-07-26 11:55:00,78.8,55.6,30.06,East,94,4.0,7.0,45,0.00,,,0.00,0776,Weather View 32 v70,2013-07-26 18:55:00,
2013-07-26 12:05:00,79.8,55.9,30.06,East,94,4.0,7.0,44,0.00,,,0.00,0783,Weather View 32 v70,2013-07-26 19:05:00,
2013-07-26 12:10:00,80.3,55.7,30.06,ENE,72,1.0,7.0,43,0.00,,,0.00,0787,Weather View 32 v70,2013-07-26 19:10:00,
2013-07-26 12:15:00,81.0,55.7,30.05,South,184,2.0,7.0,42,0.00,,,0.00,0793,Weather View 32 v70,2013-07-26 19:15:00,
2013-07-26 12:20:00,81.9,55.8,30.05,ENE,72,3.0,7.0,41,0.00,,,0.00,0798,Weather View 32 v70,2013-07-26 19:20:00,
2013-07-26 12:25:00,82.0,55.2,30.05,ESE,117,3.0,7.0,40,0.00,,,0.00,0803,Weather View 32 v70,2013-07-26 19:25:00,
2013-07-26 12:35:00,82.6,55.7,30.05,ESE,117,1.0,7.0,40,0.00,,,0.00,0813,Weather View 32 v70,2013-07-26 19:35:00,
2013-07-26 12:40:00,83.4,55.8,30.04,ESE,117,4.0,7.0,39,0.00,,,0.00,0817,Weather View 32 v70,2013-07-26 19:40:00,
2013-07-26 12:45:00,83.3,55.0,30.04,ESE,117,3.0,8.0,38,0.00,,,0.00,0821,Weather View 32 v70,2013-07-26 19:45:00,
2013-07-26 12:50:00,83.4,55.0,30.04,ENE,72,3.0,9.0,38,0.00,,,0.00,0826,Weather View 32 v70,2013-07-26 19:50:00,
2013-07-26 12:55:00,84.1,54.9,30.04,ENE,72,5.0,9.0,37,0.00,,,0.00,0829,Weather View 32 v70,2013-07-26 19:55:00,
2013-07-26 13:05:00,85.3,53.7,30.03,ESE,117,3.0,9.0,34,0.00,,,0.00,0838,Weather View 32 v70,2013-07-26 20:05:00,
2013-07-26 13:10:00,86.6,53.1,30.03,SSW,207,4.0,9.0,32,0.00,,,0.00,0843,Weather View 32 v70,2013-07-26 20:10:00,
2013-07-26 13:20:00,87.5,52.1,30.03,ESE,117,2.0,12.0,30,0.00,,,0.00,0844,Weather View 32 v70,2013-07-26 20:20:00,
2013-07-26 13:25:00,87.7,51.4,30.03,WSW,252,6.0,12.0,29,0.00,,,0.00,0846,Weather View 32 v70,2013-07-26 20:25:00,
2013-07-26 13:35:00,87.5,51.2,30.03,WSW,252,7.0,12.0,29,0.00,,,0.00,0846,Weather View 32 v70,2013-07-26 20:35:00,
2013-07-26 13:40:00,87.7,50.4,30.03,West,274,8.0,12.0,28,0.00,,,0.00,0845,Weather View 32 v70,2013-07-26 20:40:00,
2013-07-26 13:45:00,87.5,50.3,30.03,West,274,6.0,12.0,28,0.00,,,0.00,0843,Weather View 32 v70,2013-07-26 20:45:00,
2013-07-26 13:50:00,86.9,50.7,30.03,WSW,252,8.0,12.0,29,0.00,,,0.00,0839,Weather View 32 v70,2013-07-26 20:50:00,
2013-07-26 13:55:00,86.6,49.5,30.02,West,274,9.0,12.0,28,0.00,,,0.00,0836,Weather View 32 v70,2013-07-26 20:55:00,
2013-07-26 14:05:00,87.2,50.0,30.02,South,184,4.0,12.0,28,0.00,,,0.00,0829,Weather View 32 v70,2013-07-26 21:05:00,
2013-07-26 14:10:00,87.3,50.1,30.02,SSW,207,9.0,12.0,28,0.00,,,0.00,0820,Weather View 32 v70,2013-07-26 21:10:00,
2013-07-26 14:15:00,87.5,50.3,30.02,WNW,297,4.0,13.0,28,0.00,,,0.00,0814,Weather View 32 v70,2013-07-26 21:15:00,
2013-07-26 14:20:00,87.9,50.6,30.02,ENE,72,2.0,13.0,28,0.00,,,0.00,0808,Weather View 32 v70,2013-07-26 21:20:00,
2013-07-26 14:30:00,87.5,50.3,30.02,WSW,252,10.0,14.0,28,0.00,,,0.00,0794,Weather View 32 v70,2013-07-26 21:30:00,
2013-07-26 14:35:00,87.4,50.2,30.02,West,274,6.0,14.0,28,0.00,,,0.00,0786,Weather View 32 v70,2013-07-26 21:35:00,
2013-07-26 14:40:00,86.8,48.7,30.02,WNW,297,6.0,14.0,27,0.00,,,0.00,0777,Weather View 32 v70,2013-07-26 21:40:00,
2013-07-26 14:45:00,86.7,49.6,30.02,NNW,342,5.0,14.0,28,0.00,,,0.00,0696,Weather View 32 v70,2013-07-26 21:45:00,
2013-07-26 14:50:00,86.7,48.6,30.02,WSW,252,9.0,14.0,27,0.00,,,0.00,0763,Weather View 32 v70,2013-07-26 21:50:00,
2013-07-26 14:55:00,86.6,49.5,30.02,West,274,5.0,14.0,28,0.00,,,0.00,0758,Weather View 32 v70,2013-07-26 21:55:00,
2013-07-26 15:05:00,86.3,48.3,30.02,WSW,252,6.0,15.0,27,0.00,,,0.00,0741,Weather View 32 v70,2013-07-26 22:05:00,
2013-07-26 15:10:00,86.6,49.5,30.02,SSW,207,10.0,15.0,28,0.00,,,0.00,0735,Weather View 32 v70,2013-07-26 22:10:00,
2013-07-26 15:15:00,86.3,50.2,30.02,WSW,252,7.0,16.0,29,0.00,,,0.00,0726,Weather View 32 v70,2013-07-26 22:15:00,
2013-07-26 15:20:00,86.4,49.3,30.02,SW,229,7.0,16.0,28,0.00,,,0.00,0719,Weather View 32 v70,2013-07-26 22:20:00,
2013-07-26 15:25:00,86.7,50.5,30.02,West,274,2.0,16.0,29,0.00,,,0.00,0715,Weather View 32 v70,2013-07-26 22:25:00,
2013-07-26 15:35:00,86.8,49.7,30.01,SE,139,6.0,16.0,28,0.00,,,0.00,0702,Weather View 32 v70,2013-07-26 22:35:00,
2013-07-26 15:40:00,86.7,49.6,30.01,WSW,252,6.0,18.0,28,0.00,,,0.00,0694,Weather View 32 v70,2013-07-26 22:40:00,
2013-07-26 15:45:00,86.3,49.2,30.01,WSW,252,4.0,18.0,28,0.00,,,0.00,0687,Weather View 32 v70,2013-07-26 22:45:00,
2013-07-26 15:50:00,86.8,49.7,30.01,SSW,207,6.0,18.0,28,0.00,,,0.00,0681,Weather View 32 v70,2013-07-26 22:50:00,
2013-07-26 15:55:00,87.3,50.1,30.01,SSW,207,4.0,18.0,28,0.00,,,0.00,0675,Weather View 32 v70,2013-07-26 22:55:00,
2013-07-26 16:05:00,86.8,50.6,30.01,West,274,4.0,18.0,29,0.00,,,0.00,0658,Weather View 32 v70,2013-07-26 23:05:00,
2013-07-26 16:10:00,86.3,49.2,30.01,SSE,162,8.0,18.0,28,0.00,,,0.00,0649,Weather View 32 v70,2013-07-26 23:10:00,
2013-07-26 16:15:00,86.3,50.2,30.01,SW,229,7.0,18.0,29,0.00,,,0.00,0642,Weather View 32 v70,2013-07-26 23:15:00,
2013-07-26 16:20:00,85.6,48.7,30.01,SW,229,12.0,18.0,28,0.00,,,0.00,0631,Weather View 32 v70,2013-07-26 23:20:00,
2013-07-26 16:30:00,85.4,49.4,30.00,SSW,207,8.0,18.0,29,0.00,,,0.00,0611,Weather View 32 v70,2013-07-26 23:30:00,
2013-07-26 16:35:00,85.7,49.7,30.00,SW,229,8.0,18.0,29,0.00,,,0.00,0599,Weather View 32 v70,2013-07-26 23:35:00,
2013-07-26 16:40:00,85.7,49.7,30.00,SSW,207,6.0,17.0,29,0.00,,,0.00,0588,Weather View 32 v70,2013-07-26 23:40:00,
2013-07-26 16:45:00,85.6,49.6,30.00,SSW,207,11.0,17.0,29,0.00,,,0.00,0577,Weather View 32 v70,2013-07-26 23:45:00,
2013-07-26 16:50:00,85.8,49.8,30.00,WSW,252,4.0,17.0,29,0.00,,,0.00,0565,Weather View 32 v70,2013-07-26 23:50:00,
2013-07-26 17:00:00,85.5,49.5,30.00,SW,229,4.0,17.0,29,0.00,,,0.00,0540,Weather View 32 v70,2013-07-27 00:00:00,
2013-07-26 17:05:00,85.8,49.8,30.00,SSW,207,4.0,17.0,29,0.00,,,0.00,0530,Weather View 32 v70,2013-07-27 00:05:00,
2013-07-26 17:10:00,85.8,48.8,30.00,WNW,297,6.0,17.0,28,0.00,,,0.00,0516,Weather View 32 v70,2013-07-27 00:10:00,
2013-07-26 17:15:00,86.1,49.1,30.00,WNW,297,3.0,17.0,28,0.00,,,0.00,0503,Weather View 32 v70,2013-07-27 00:15:00,
2013-07-26 17:20:00,86.3,49.2,30.00,SW,229,1.0,17.0,28,0.00,,,0.00,0491,Weather View 32 v70,2013-07-27 00:20:00,
2013-07-26 17:30:00,85.7,52.3,30.00,East,94,4.0,15.0,32,0.00,,,0.00,0464,Weather View 32 v70,2013-07-27 00:30:00,
2013-07-26 17:35:00,84.9,51.7,30.00,NNW,342,4.0,15.0,32,0.00,,,0.00,0452,Weather View 32 v70,2013-07-27 00:35:00,
2013-07-26 17:40:00,85.0,50.0,30.00,SSW,207,6.0,15.0,30,0.00,,,0.00,0440,Weather View 32 v70,2013-07-27 00:40:00,
2013-07-26 17:45:00,85.0,49.1,30.00,NNW,342,2.0,15.0,29,0.00,,,0.00,0427,Weather View 32 v70,2013-07-27 00:45:00,
2013-07-26 17:50:00,83.8,52.3,30.00,NW,319,7.0,15.0,34,0.00,,,0.00,0414,Weather View 32 v70,2013-07-27 00:50:00,
2013-07-26 18:00:00,82.9,52.3,29.99,NNW,342,7.0,14.0,35,0.00,,,0.00,0390,Weather View 32 v70,2013-07-27 01:00:00,
2013-07-26 18:05:00,82.1,52.4,29.99,NNW,342,9.0,14.0,36,0.00,,,0.00,0378,Weather View 32 v70,2013-07-27 01:05:00,
2013-07-26 18:10:00,82.9,52.3,29.99,WNW,297,5.0,12.0,35,0.00,,,0.00,0366,Weather View 32 v70,2013-07-27 01:10:00,
2013-07-26 18:15:00,81.9,53.0,29.99,NNW,342,5.0,12.0,37,0.00,,,0.00,0354,Weather View 32 v70,2013-07-27 01:15:00,
2013-07-26 18:20:00,82.3,51.0,29.99,NNW,342,7.0,12.0,34,0.00,,,0.00,0342,Weather View 32 v70,2013-07-27 01:20:00,
2013-07-26 18:25:00,82.0,52.3,29.99,NW,319,6.0,12.0,36,0.00,,,0.00,0329,Weather View 32 v70,2013-07-27 01:25:00,
2013-07-26 18:35:00,82.4,51.9,29.99,NW,319,3.0,12.0,35,0.00,,,0.00,0305,Weather View 32 v70,2013-07-27 01:35:00,
2013-07-26 18:40:00,82.4,51.9,29.99,NNW,342,1.0,12.0,35,0.00,,,0.00,0292,Weather View 32 v70,2013-07-27 01:40:00,
2013-07-26 18:45:00,82.2,52.5,29.99,West,274,2.0,12.0,36,0.00,,,0.00,0280,Weather View 32 v70,2013-07-27 01:45:00,
2013-07-26 18:50:00,81.0,52.2,29.99,NW,319,4.0,12.0,37,0.00,,,0.00,0268,Weather View 32 v70,2013-07-27 01:50:00,
2013-07-26 18:55:00,81.1,51.5,29.99,SW,229,4.0,12.0,36,0.00,,,0.00,0255,Weather View 32 v70,2013-07-27 01:55:00,
2013-07-26 19:05:00,82.1,50.1,29.99,South,184,1.0,12.0,33,0.00,,,0.00,0230,Weather View 32 v70,2013-07-27 02:05:00,
2013-07-26 19:10:00,80.3,51.6,29.99,South,184,2.0,12.0,37,0.00,,,0.00,0215,Weather View 32 v70,2013-07-27 02:10:00,
2013-07-26 19:15:00,78.6,51.5,29.99,NW,319,8.0,12.0,39,0.00,,,0.00,0201,Weather View 32 v70,2013-07-27 02:15:00,
2013-07-26 19:20:00,77.2,52.3,29.99,NNW,342,4.0,12.0,42,0.00,,,0.00,0189,Weather View 32 v70,2013-07-27 02:20:00,
2013-07-26 19:25:00,77.5,52.5,30.00,North,4,3.0,9.0,42,0.00,,,0.00,0175,Weather View 32 v70,2013-07-27 02:25:00,
2013-07-26 19:30:00,76.1,52.5,29.99,NE,49,5.0,9.0,44,0.00,,,0.00,0071,Weather View 32 v70,2013-07-27 02:30:00,
2013-07-26 19:40:00,74.0,53.0,30.00,ENE,72,1.0,9.0,48,0.00,,,0.00,0018,Weather View 32 v70,2013-07-27 02:40:00,
2013-07-26 19:45:00,73.2,53.4,30.00,North,4,3.0,9.0,50,0.00,,,0.00,0017,Weather View 32 v70,2013-07-27 02:45:00,
2013-07-26 19:50:00,72.4,53.2,30.00,North,4,3.0,9.0,51,0.00,,,0.00,0015,Weather View 32 v70,2013-07-27 02:50:00,
2013-07-26 19:55:00,71.9,53.3,30.00,NE,49,3.0,9.0,52,0.00,,,0.00,0014,Weather View 32 v70,2013-07-27 02:55:00,
2013-07-26 20:00:00,71.1,53.0,30.00,NW,319,1.0,9.0,53,0.00,,,0.00,0013,Weather View 32 v70,2013-07-27 03:00:00,
2013-07-26 20:05:00,70.3,53.3,30.00,North,4,2.0,9.0,55,0.00,,,0.00,0011,Weather View 32 v70,2013-07-27 03:05:00,
2013-07-26 20:15:00,68.5,53.1,30.01,North,4,4.0,9.0,58,0.00,,,0.00,0008,Weather View 32 v70,2013-07-27 03:15:00,
2013-07-26 20:25:00,68.0,53.1,30.01,NNE,27,1.0,7.0,59,0.00,,,0.00,0004,Weather View 32 v70,2013-07-27 03:25:00,
2013-07-26 20:30:00,67.7,52.8,30.01,NE,49,0.0,7.0,59,0.00,,,0.00,0003,Weather View 32 v70,2013-07-27 03:30:00,
2013-07-26 20:35:00,67.5,53.1,30.01,East,94,1.0,7.0,60,0.00,,,0.00,0002,Weather View 32 v70,2013-07-27 03:35:00,
2013-07-26 20:40:00,67.1,53.2,30.02,ESE,117,0.0,7.0,61,0.00,,,0.00,0002,Weather View 32 v70,2013-07-27 03:40:00,
2013-07-26 20:45:00,66.9,53.0,30.02,ESE,117,0.0,7.0,61,0.00,,,0.00,0002,Weather View 32 v70,2013-07-27 03:45:00,
2013-07-26 20:50:00,66.7,53.2,30.02,SE,139,0.0,7.0,62,0.00,,,0.00,0002,Weather View 32 v70,2013-07-27 03:50:00,
2013-07-26 21:00:00,66.3,53.3,30.02,North,4,0.0,7.0,63,0.00,,,0.00,0001,Weather View 32 v70,2013-07-27 04:00:00,
2013-07-26 21:05:00,66.1,53.1,30.02,NNE,27,0.0,7.0,63,0.00,,,0.00,0001,Weather View 32 v70,2013-07-27 04:05:00,
2013-07-26 21:10:00,66.0,53.4,30.02,ENE,72,0.0,7.0,64,0.00,,,0.00,0001,Weather View 32 v70,2013-07-27 04:10:00,
2013-07-26 21:15:00,65.8,53.2,30.02,WSW,252,0.0,4.0,64,0.00,,,0.00,0002,Weather View 32 v70,2013-07-27 04:15:00,
2013-07-26 21:25:00,65.2,53.1,30.03,ESE,117,0.0,3.0,65,0.00,,,0.00,0001,Weather View 32 v70,2013-07-27 04:25:00,
2013-07-26 21:35:00,64.3,52.7,30.03,SE,139,0.0,3.0,66,0.00,,,0.00,0001,Weather View 32 v70,2013-07-27 04:35:00,
2013-07-26 21:40:00,64.1,52.5,30.03,ENE,72,0.0,3.0,66,0.00,,,0.00,0001,Weather View 32 v70,2013-07-27 04:40:00,
2013-07-26 21:45:00,63.9,52.7,30.03,ESE,117,0.0,3.0,67,0.00,,,0.00,0001,Weather View 32 v70,2013-07-27 04:45:00,
2013-07-26 21:50:00,63.7,52.9,30.03,ESE,117,0.0,3.0,68,0.00,,,0.00,0001,Weather View 32 v70,2013-07-27 04:50:00,
2013-07-26 21:55:00,63.4,52.6,30.03,South,184,0.0,3.0,68,0.00,,,0.00,0002,Weather View 32 v70,2013-07-27 04:55:00,
2013-07-26 22:00:00,63.3,52.9,30.04,South,184,0.0,1.0,69,0.00,,,0.00,0001,Weather View 32 v70,2013-07-27 05:00:00,
2013-07-26 22:10:00,63.1,52.7,30.04,SE,139,0.0,1.0,69,0.00,,,0.00,0001,Weather View 32 v70,2013-07-27 05:10:00,
2013-07-26 22:15:00,62.9,52.9,30.04,East,94,0.0,1.0,70,0.00,,,0.00,0002,Weather View 32 v70,2013-07-27 05:15:00,
2013-07-26 22:20:00,62.7,52.7,30.04,SE,139,0.0,1.0,70,0.00,,,0.00,0001,Weather View 32 v70,2013-07-27 05:20:00,
2013-07-26 22:25:00,62.5,52.9,30.04,SSE,162,0.0,1.0,71,0.00,,,0.00,0002,Weather View 32 v70,2013-07-27 05:25:00,
2013-07-26 22:30:00,62.3,52.8,30.04,SE,139,0.0,0.0,71,0.00,,,0.00,0001,Weather View 32 v70,2013-07-27 05:30:00,
2013-07-26 22:40:00,61.9,52.8,30.04,SE,139,0.0,0.0,72,0.00,,,0.00,0002,Weather View 32 v70,2013-07-27 05:40:00,
2013-07-26 22:45:00,61.7,52.6,30.04,SSW,207,0.0,0.0,72,0.00,,,0.00,0002,Weather View 32 v70,2013-07-27 05:45:00,
2013-07-26 22:50:00,61.5,52.7,30.04,ENE,72,0.0,0.0,73,0.00,,,0.00,0002,Weather View 32 v70,2013-07-27 05:50:00,
2013-07-26 22:55:00,61.5,53.1,30.04,NNE,27,1.0,3.0,74,0.00,,,0.00,0002,Weather View 32 v70,2013-07-27 05:55:00,
2013-07-26 23:00:00,61.3,52.9,30.04,ESE,117,0.0,3.0,74,0.00,,,0.00,0001,Weather View 32 v70,2013-07-27 06:00:00,
2013-07-26 23:05:00,60.9,52.5,30.04,SE,139,0.0,3.0,74,0.00,,,0.00,0001,Weather View 32 v70,2013-07-27 06:05:00,
2013-07-26 23:15:00,60.7,52.7,30.03,SE,139,0.0,3.0,75,0.00,,,0.00,0001,Weather View 32 v70,2013-07-27 06:15:00,
2013-07-26 23:20:00,60.5,52.5,30.03,South,184,0.0,3.0,75,0.00,,,0.00,0002,Weather View 32 v70,2013-07-27 06:20:00,
2013-07-26 23:25:00,60.4,52.4,30.03,ESE,117,0.0,3.0,75,0.00,,,0.00,0002,Weather View 32 v70,2013-07-27 06:25:00,
2013-07-26 23:30:00,60.2,52.6,30.03,ESE,117,0.0,3.0,76,0.00,,,0.00,0002,Weather View 32 v70,2013-07-27 06:30:00,
2013-07-26 23:35:00,60.1,52.5,30.03,SE,139,0.0,3.0,76,0.00,,,0.00,0002,Weather View 32 v70,2013-07-27 06:35:00,
2013-07-26 23:40:00,60.0,52.8,30.03,South,184,0.0,3.0,77,0.00,,,0.00,0001,Weather View 32 v70,2013-07-27 06:40:00,
2013-07-26 23:45:00,59.9,52.7,30.03,South,184,0.0,3.0,77,0.00,,,0.00,0001,Weather View 32 v70,2013-07-27 06:45:00,
2013-07-26 23:55:00,59.6,52.4,30.03,SSE,162,0.0,2.0,77,0.00,,,0.00,0001,Weather View 32 v70,2013-07-27 06:55:00,